sensor_id;sensor_type;location;lat;lon;timestamp;P1;durP1;ratioP1;P2;durP2;ratioP2
75413;SDS011;64758;52.122;5.404;2022-12-07T00:01:27;4.80;;;2.65;;
75413;SDS011;64758;52.122;5.404;2022-12-07T00:03:55;3.42;;;2.22;;
75413;SDS011;64758;52.122;5.404;2022-12-07T00:06:31;6.50;;;2.28;;
75413;SDS011;64758;52.122;5.404;2022-12-07T00:08:59;4.60;;;2.17;;
75413;SDS011;64758;52.122;5.404;2022-12-07T00:11:25;4.68;;;2.03;;
75413;SDS011;64758;52.122;5.404;2022-12-07T00:13:53;4.63;;;2.10;;
75413;SDS011;64758;52.122;5.404;2022-12-07T00:16:22;4.75;;;2.30;;
75413;SDS011;64758;52.122;5.404;2022-12-07T00:18:49;5.65;;;2.28;;
75413;SDS011;64758;52.122;5.404;2022-12-07T00:21:19;5.23;;;2.13;;
75413;SDS011;64758;52.122;5.404;2022-12-07T00:23:48;3.88;;;2.13;;
75413;SDS011;64758;52.122;5.404;2022-12-07T00:26:17;2.78;;;1.98;;
75413;SDS011;64758;52.122;5.404;2022-12-07T00:28:49;8.32;;;2.13;;
75413;SDS011;64758;52.122;5.404;2022-12-07T00:31:17;9.77;;;2.28;;
75413;SDS011;64758;52.122;5.404;2022-12-07T00:33:46;6.47;;;2.30;;
75413;SDS011;64758;52.122;5.404;2022-12-07T00:36:14;7.97;;;2.90;;
75413;SDS011;64758;52.122;5.404;2022-12-07T00:38:48;3.60;;;2.70;;
75413;SDS011;64758;52.122;5.404;2022-12-07T00:41:15;5.25;;;2.67;;
75413;SDS011;64758;52.122;5.404;2022-12-07T00:43:44;5.72;;;2.53;;
75413;SDS011;64758;52.122;5.404;2022-12-07T00:46:12;6.03;;;3.13;;
75413;SDS011;64758;52.122;5.404;2022-12-07T00:48:39;6.78;;;2.95;;
75413;SDS011;64758;52.122;5.404;2022-12-07T00:51:06;6.15;;;2.55;;
75413;SDS011;64758;52.122;5.404;2022-12-07T00:53:33;5.22;;;2.50;;
75413;SDS011;64758;52.122;5.404;2022-12-07T00:58:43;5.30;;;2.20;;
75413;SDS011;64758;52.122;5.404;2022-12-07T01:01:10;5.32;;;1.85;;
75413;SDS011;64758;52.122;5.404;2022-12-07T01:03:37;4.28;;;2.20;;
75413;SDS011;64758;52.122;5.404;2022-12-07T01:06:04;3.65;;;1.85;;
75413;SDS011;64758;52.122;5.404;2022-12-07T01:08:31;4.30;;;2.17;;
75413;SDS011;64758;52.122;5.404;2022-12-07T01:11:02;7.13;;;1.83;;
75413;SDS011;64758;52.122;5.404;2022-12-07T01:13:31;4.72;;;1.33;;
75413;SDS011;64758;52.122;5.404;2022-12-07T01:16:00;4.03;;;1.48;;
75413;SDS011;64758;52.122;5.404;2022-12-07T01:18:30;6.03;;;1.60;;
75413;SDS011;64758;52.122;5.404;2022-12-07T01:20:59;5.75;;;1.60;;
75413;SDS011;64758;52.122;5.404;2022-12-07T01:23:30;4.07;;;1.10;;
75413;SDS011;64758;52.122;5.404;2022-12-07T01:25:58;6.63;;;1.50;;
75413;SDS011;64758;52.122;5.404;2022-12-07T01:28:26;8.55;;;1.85;;
75413;SDS011;64758;52.122;5.404;2022-12-07T01:31:00;4.38;;;1.45;;
75413;SDS011;64758;52.122;5.404;2022-12-07T01:33:29;5.57;;;1.23;;
75413;SDS011;64758;52.122;5.404;2022-12-07T01:36:00;3.23;;;1.23;;
75413;SDS011;64758;52.122;5.404;2022-12-07T01:38:30;5.30;;;1.00;;
75413;SDS011;64758;52.122;5.404;2022-12-07T01:40:59;4.60;;;1.00;;
75413;SDS011;64758;52.122;5.404;2022-12-07T01:43:27;3.22;;;0.88;;
75413;SDS011;64758;52.122;5.404;2022-12-07T01:45:56;3.95;;;1.20;;
75413;SDS011;64758;52.122;5.404;2022-12-07T01:48:27;3.53;;;1.00;;
75413;SDS011;64758;52.122;5.404;2022-12-07T01:51:01;3.33;;;1.00;;
75413;SDS011;64758;52.122;5.404;2022-12-07T01:53:32;1.48;;;0.82;;
75413;SDS011;64758;52.122;5.404;2022-12-07T01:56:02;5.55;;;0.90;;
75413;SDS011;64758;52.122;5.404;2022-12-07T01:58:29;5.57;;;1.10;;
75413;SDS011;64758;52.122;5.404;2022-12-07T02:00:55;6.27;;;1.20;;
75413;SDS011;64758;52.122;5.404;2022-12-07T02:03:27;6.07;;;1.30;;
75413;SDS011;64758;52.122;5.404;2022-12-07T02:05:59;1.63;;;0.70;;
75413;SDS011;64758;52.122;5.404;2022-12-07T02:08:26;1.63;;;0.68;;
75413;SDS011;64758;52.122;5.404;2022-12-07T02:10:53;5.22;;;0.98;;
75413;SDS011;64758;52.122;5.404;2022-12-07T02:13:24;5.13;;;0.80;;
75413;SDS011;64758;52.122;5.404;2022-12-07T02:29:57;7.57;;;0.85;;
75413;SDS011;64758;52.122;5.404;2022-12-07T02:32:51;6.72;;;0.80;;
75413;SDS011;64758;52.122;5.404;2022-12-07T02:35:19;2.88;;;0.90;;
75413;SDS011;64758;52.122;5.404;2022-12-07T02:40:33;3.27;;;0.87;;
75413;SDS011;64758;52.122;5.404;2022-12-07T02:43:27;2.88;;;0.70;;
75413;SDS011;64758;52.122;5.404;2022-12-07T02:46:04;6.45;;;0.90;;
75413;SDS011;64758;52.122;5.404;2022-12-07T02:48:34;4.55;;;1.52;;
75413;SDS011;64758;52.122;5.404;2022-12-07T02:51:03;3.92;;;0.60;;
75413;SDS011;64758;52.122;5.404;2022-12-07T02:56:02;4.20;;;0.68;;
75413;SDS011;64758;52.122;5.404;2022-12-07T02:59:30;8.07;;;1.13;;
75413;SDS011;64758;52.122;5.404;2022-12-07T03:07:14;5.57;;;1.23;;
75413;SDS011;64758;52.122;5.404;2022-12-07T03:09:51;6.03;;;1.45;;
75413;SDS011;64758;52.122;5.404;2022-12-07T03:12:48;6.03;;;1.20;;
75413;SDS011;64758;52.122;5.404;2022-12-07T03:16:02;6.28;;;0.98;;
75413;SDS011;64758;52.122;5.404;2022-12-07T03:18:37;3.20;;;1.02;;
75413;SDS011;64758;52.122;5.404;2022-12-07T03:21:13;3.63;;;0.63;;
75413;SDS011;64758;52.122;5.404;2022-12-07T03:23:44;1.85;;;0.40;;
75413;SDS011;64758;52.122;5.404;2022-12-07T03:26:15;3.78;;;0.47;;
75413;SDS011;64758;52.122;5.404;2022-12-07T03:28:47;2.95;;;0.50;;
75413;SDS011;64758;52.122;5.404;2022-12-07T03:31:20;3.35;;;0.50;;
75413;SDS011;64758;52.122;5.404;2022-12-07T03:33:58;8.90;;;0.73;;
75413;SDS011;64758;52.122;5.404;2022-12-07T03:37:31;2.45;;;0.55;;
75413;SDS011;64758;52.122;5.404;2022-12-07T03:42:32;4.68;;;0.82;;
75413;SDS011;64758;52.122;5.404;2022-12-07T03:45:01;3.88;;;0.73;;
75413;SDS011;64758;52.122;5.404;2022-12-07T03:47:31;6.83;;;1.33;;
75413;SDS011;64758;52.122;5.404;2022-12-07T03:50:40;2.47;;;0.90;;
75413;SDS011;64758;52.122;5.404;2022-12-07T03:53:05;4.03;;;0.90;;
75413;SDS011;64758;52.122;5.404;2022-12-07T03:55:38;2.10;;;0.73;;
75413;SDS011;64758;52.122;5.404;2022-12-07T03:58:10;5.15;;;1.08;;
75413;SDS011;64758;52.122;5.404;2022-12-07T04:00:40;6.37;;;1.00;;
75413;SDS011;64758;52.122;5.404;2022-12-07T04:03:08;4.47;;;0.85;;
75413;SDS011;64758;52.122;5.404;2022-12-07T04:05:35;5.80;;;0.60;;
75413;SDS011;64758;52.122;5.404;2022-12-07T04:08:03;3.15;;;0.60;;
75413;SDS011;64758;52.122;5.404;2022-12-07T04:10:29;4.43;;;0.90;;
75413;SDS011;64758;52.122;5.404;2022-12-07T04:12:56;2.97;;;0.80;;
75413;SDS011;64758;52.122;5.404;2022-12-07T04:15:22;3.67;;;0.60;;
75413;SDS011;64758;52.122;5.404;2022-12-07T04:17:49;4.28;;;0.57;;
75413;SDS011;64758;52.122;5.404;2022-12-07T04:20:15;3.38;;;0.60;;
75413;SDS011;64758;52.122;5.404;2022-12-07T04:22:42;1.60;;;0.50;;
75413;SDS011;64758;52.122;5.404;2022-12-07T04:25:09;5.40;;;0.83;;
75413;SDS011;64758;52.122;5.404;2022-12-07T04:27:35;4.95;;;0.50;;
75413;SDS011;64758;52.122;5.404;2022-12-07T04:30:02;3.92;;;1.13;;
75413;SDS011;64758;52.122;5.404;2022-12-07T04:32:29;4.18;;;0.60;;
75413;SDS011;64758;52.122;5.404;2022-12-07T04:34:55;1.83;;;0.60;;
75413;SDS011;64758;52.122;5.404;2022-12-07T04:37:22;3.13;;;0.50;;
75413;SDS011;64758;52.122;5.404;2022-12-07T04:39:49;5.70;;;0.60;;
75413;SDS011;64758;52.122;5.404;2022-12-07T04:42:16;3.20;;;0.63;;
75413;SDS011;64758;52.122;5.404;2022-12-07T04:44:42;4.85;;;0.80;;
75413;SDS011;64758;52.122;5.404;2022-12-07T04:47:09;6.70;;;0.73;;
75413;SDS011;64758;52.122;5.404;2022-12-07T04:49:36;4.73;;;0.90;;
75413;SDS011;64758;52.122;5.404;2022-12-07T04:52:02;3.08;;;0.50;;
75413;SDS011;64758;52.122;5.404;2022-12-07T04:54:28;4.50;;;0.63;;
75413;SDS011;64758;52.122;5.404;2022-12-07T04:56:55;2.67;;;0.30;;
75413;SDS011;64758;52.122;5.404;2022-12-07T04:59:22;2.70;;;0.40;;
75413;SDS011;64758;52.122;5.404;2022-12-07T05:01:48;5.33;;;0.37;;
75413;SDS011;64758;52.122;5.404;2022-12-07T05:04:15;6.53;;;0.43;;
75413;SDS011;64758;52.122;5.404;2022-12-07T05:06:42;4.72;;;0.47;;
75413;SDS011;64758;52.122;5.404;2022-12-07T05:09:08;3.03;;;0.30;;
75413;SDS011;64758;52.122;5.404;2022-12-07T05:11:35;2.63;;;0.40;;
75413;SDS011;64758;52.122;5.404;2022-12-07T05:14:09;7.13;;;0.30;;
75413;SDS011;64758;52.122;5.404;2022-12-07T05:16:38;3.72;;;0.40;;
75413;SDS011;64758;52.122;5.404;2022-12-07T05:19:05;1.48;;;0.30;;
75413;SDS011;64758;52.122;5.404;2022-12-07T05:21:32;3.13;;;0.30;;
75413;SDS011;64758;52.122;5.404;2022-12-07T05:23:59;4.72;;;0.50;;
75413;SDS011;64758;52.122;5.404;2022-12-07T05:26:25;2.57;;;0.30;;
75413;SDS011;64758;52.122;5.404;2022-12-07T05:28:52;2.33;;;0.50;;
75413;SDS011;64758;52.122;5.404;2022-12-07T05:31:20;6.55;;;0.50;;
75413;SDS011;64758;52.122;5.404;2022-12-07T05:33:47;4.00;;;0.30;;
75413;SDS011;64758;52.122;5.404;2022-12-07T05:36:14;4.20;;;0.30;;
75413;SDS011;64758;52.122;5.404;2022-12-07T05:38:41;6.03;;;0.33;;
75413;SDS011;64758;52.122;5.404;2022-12-07T05:41:08;3.45;;;0.30;;
75413;SDS011;64758;52.122;5.404;2022-12-07T05:43:55;1.75;;;0.25;;
75413;SDS011;64758;52.122;5.404;2022-12-07T05:46:22;3.28;;;0.30;;
75413;SDS011;64758;52.122;5.404;2022-12-07T05:48:48;2.28;;;0.25;;
75413;SDS011;64758;52.122;5.404;2022-12-07T05:51:15;1.97;;;0.30;;
75413;SDS011;64758;52.122;5.404;2022-12-07T05:53:41;3.28;;;0.73;;
75413;SDS011;64758;52.122;5.404;2022-12-07T05:56:08;4.43;;;0.40;;
75413;SDS011;64758;52.122;5.404;2022-12-07T05:58:34;2.75;;;0.30;;
75413;SDS011;64758;52.122;5.404;2022-12-07T06:01:19;4.78;;;0.30;;
75413;SDS011;64758;52.122;5.404;2022-12-07T06:03:45;5.10;;;0.90;;
75413;SDS011;64758;52.122;5.404;2022-12-07T06:06:12;2.58;;;0.30;;
75413;SDS011;64758;52.122;5.404;2022-12-07T06:08:38;2.78;;;0.50;;
75413;SDS011;64758;52.122;5.404;2022-12-07T06:11:05;5.47;;;0.40;;
75413;SDS011;64758;52.122;5.404;2022-12-07T06:13:50;3.22;;;0.40;;
75413;SDS011;64758;52.122;5.404;2022-12-07T06:16:16;3.27;;;0.40;;
75413;SDS011;64758;52.122;5.404;2022-12-07T06:18:43;6.68;;;0.80;;
75413;SDS011;64758;52.122;5.404;2022-12-07T06:21:09;4.15;;;0.57;;
75413;SDS011;64758;52.122;5.404;2022-12-07T06:23:36;3.65;;;0.40;;
75413;SDS011;64758;52.122;5.404;2022-12-07T06:26:02;3.80;;;0.30;;
75413;SDS011;64758;52.122;5.404;2022-12-07T06:28:29;5.90;;;0.70;;
75413;SDS011;64758;52.122;5.404;2022-12-07T06:30:58;4.40;;;0.40;;
75413;SDS011;64758;52.122;5.404;2022-12-07T06:33:26;3.15;;;0.45;;
75413;SDS011;64758;52.122;5.404;2022-12-07T06:35:53;2.55;;;0.55;;
75413;SDS011;64758;52.122;5.404;2022-12-07T06:38:19;4.72;;;0.50;;
75413;SDS011;64758;52.122;5.404;2022-12-07T06:40:47;6.47;;;0.40;;
75413;SDS011;64758;52.122;5.404;2022-12-07T06:43:14;3.75;;;0.45;;
75413;SDS011;64758;52.122;5.404;2022-12-07T06:45:41;3.88;;;0.70;;
75413;SDS011;64758;52.122;5.404;2022-12-07T06:48:08;4.82;;;0.57;;
75413;SDS011;64758;52.122;5.404;2022-12-07T06:50:34;6.47;;;0.50;;
75413;SDS011;64758;52.122;5.404;2022-12-07T06:53:01;6.80;;;0.93;;
75413;SDS011;64758;52.122;5.404;2022-12-07T06:55:27;5.28;;;0.60;;
75413;SDS011;64758;52.122;5.404;2022-12-07T06:57:54;6.47;;;0.70;;
75413;SDS011;64758;52.122;5.404;2022-12-07T07:00:20;2.72;;;0.52;;
75413;SDS011;64758;52.122;5.404;2022-12-07T07:02:47;2.10;;;0.43;;
75413;SDS011;64758;52.122;5.404;2022-12-07T07:05:14;3.57;;;0.40;;
75413;SDS011;64758;52.122;5.404;2022-12-07T07:07:42;3.55;;;0.40;;
75413;SDS011;64758;52.122;5.404;2022-12-07T07:10:29;6.30;;;0.68;;
75413;SDS011;64758;52.122;5.404;2022-12-07T07:12:55;3.88;;;0.60;;
75413;SDS011;64758;52.122;5.404;2022-12-07T07:15:23;3.15;;;1.40;;
75413;SDS011;64758;52.122;5.404;2022-12-07T07:17:49;4.80;;;2.40;;
75413;SDS011;64758;52.122;5.404;2022-12-07T07:20:16;5.25;;;2.00;;
75413;SDS011;64758;52.122;5.404;2022-12-07T07:22:42;5.63;;;1.10;;
75413;SDS011;64758;52.122;5.404;2022-12-07T07:25:09;4.03;;;1.13;;
75413;SDS011;64758;52.122;5.404;2022-12-07T07:27:35;3.60;;;0.75;;
75413;SDS011;64758;52.122;5.404;2022-12-07T07:30:02;4.40;;;0.73;;
75413;SDS011;64758;52.122;5.404;2022-12-07T07:32:30;5.57;;;0.65;;
75413;SDS011;64758;52.122;5.404;2022-12-07T07:34:56;5.18;;;0.90;;
75413;SDS011;64758;52.122;5.404;2022-12-07T07:37:23;4.28;;;0.63;;
75413;SDS011;64758;52.122;5.404;2022-12-07T07:39:49;4.30;;;1.85;;
75413;SDS011;64758;52.122;5.404;2022-12-07T07:42:16;3.70;;;1.43;;
75413;SDS011;64758;52.122;5.404;2022-12-07T07:44:42;3.45;;;1.95;;
75413;SDS011;64758;52.122;5.404;2022-12-07T07:47:09;3.97;;;1.20;;
75413;SDS011;64758;52.122;5.404;2022-12-07T07:49:35;9.02;;;2.08;;
75413;SDS011;64758;52.122;5.404;2022-12-07T07:52:02;3.55;;;1.20;;
75413;SDS011;64758;52.122;5.404;2022-12-07T07:54:29;5.47;;;1.70;;
75413;SDS011;64758;52.122;5.404;2022-12-07T07:56:55;3.28;;;0.70;;
75413;SDS011;64758;52.122;5.404;2022-12-07T07:59:22;11.77;;;1.63;;
75413;SDS011;64758;52.122;5.404;2022-12-07T08:01:48;5.55;;;1.35;;
75413;SDS011;64758;52.122;5.404;2022-12-07T08:04:15;3.53;;;1.13;;
75413;SDS011;64758;52.122;5.404;2022-12-07T08:06:42;3.37;;;0.70;;
75413;SDS011;64758;52.122;5.404;2022-12-07T08:09:08;6.45;;;1.20;;
75413;SDS011;64758;52.122;5.404;2022-12-07T08:11:35;11.48;;;0.90;;
75413;SDS011;64758;52.122;5.404;2022-12-07T08:14:02;4.45;;;1.08;;
75413;SDS011;64758;52.122;5.404;2022-12-07T08:16:29;6.53;;;0.70;;
75413;SDS011;64758;52.122;5.404;2022-12-07T08:18:55;5.00;;;0.70;;
75413;SDS011;64758;52.122;5.404;2022-12-07T08:21:22;5.57;;;0.63;;
75413;SDS011;64758;52.122;5.404;2022-12-07T08:23:49;4.40;;;0.50;;
75413;SDS011;64758;52.122;5.404;2022-12-07T08:26:15;5.82;;;1.10;;
75413;SDS011;64758;52.122;5.404;2022-12-07T08:28:42;3.92;;;0.88;;
75413;SDS011;64758;52.122;5.404;2022-12-07T08:31:12;3.87;;;0.90;;
75413;SDS011;64758;52.122;5.404;2022-12-07T08:33:41;2.47;;;0.77;;
75413;SDS011;64758;52.122;5.404;2022-12-07T08:36:09;2.22;;;0.60;;
75413;SDS011;64758;52.122;5.404;2022-12-07T08:38:40;3.15;;;0.68;;
75413;SDS011;64758;52.122;5.404;2022-12-07T08:41:21;4.57;;;1.17;;
75413;SDS011;64758;52.122;5.404;2022-12-07T08:43:47;5.43;;;0.50;;
75413;SDS011;64758;52.122;5.404;2022-12-07T08:49:04;3.28;;;0.40;;
75413;SDS011;64758;52.122;5.404;2022-12-07T08:51:37;4.88;;;1.88;;
75413;SDS011;64758;52.122;5.404;2022-12-07T08:54:07;11.38;;;2.83;;
75413;SDS011;64758;52.122;5.404;2022-12-07T08:56:37;8.27;;;2.47;;
75413;SDS011;64758;52.122;5.404;2022-12-07T08:59:04;8.50;;;2.00;;
75413;SDS011;64758;52.122;5.404;2022-12-07T09:01:31;4.63;;;0.88;;
75413;SDS011;64758;52.122;5.404;2022-12-07T09:03:59;3.17;;;0.70;;
75413;SDS011;64758;52.122;5.404;2022-12-07T09:06:25;3.10;;;0.85;;
75413;SDS011;64758;52.122;5.404;2022-12-07T09:08:54;4.27;;;0.40;;
75413;SDS011;64758;52.122;5.404;2022-12-07T09:11:24;3.20;;;0.73;;
75413;SDS011;64758;52.122;5.404;2022-12-07T09:13:54;5.15;;;0.40;;
75413;SDS011;64758;52.122;5.404;2022-12-07T09:16:21;3.72;;;0.60;;
75413;SDS011;64758;52.122;5.404;2022-12-07T09:18:48;5.55;;;0.50;;
75413;SDS011;64758;52.122;5.404;2022-12-07T09:21:14;3.80;;;0.47;;
75413;SDS011;64758;52.122;5.404;2022-12-07T09:23:41;3.50;;;0.35;;
75413;SDS011;64758;52.122;5.404;2022-12-07T09:26:09;4.60;;;0.40;;
75413;SDS011;64758;52.122;5.404;2022-12-07T09:28:36;5.03;;;0.40;;
75413;SDS011;64758;52.122;5.404;2022-12-07T09:31:04;4.22;;;0.70;;
75413;SDS011;64758;52.122;5.404;2022-12-07T09:33:56;5.20;;;0.73;;
75413;SDS011;64758;52.122;5.404;2022-12-07T09:36:25;2.67;;;0.43;;
75413;SDS011;64758;52.122;5.404;2022-12-07T09:38:53;4.53;;;0.80;;
75413;SDS011;64758;52.122;5.404;2022-12-07T09:41:19;2.72;;;0.90;;
75413;SDS011;64758;52.122;5.404;2022-12-07T09:43:48;2.85;;;0.30;;
75413;SDS011;64758;52.122;5.404;2022-12-07T09:46:15;4.17;;;0.80;;
75413;SDS011;64758;52.122;5.404;2022-12-07T09:48:44;4.78;;;0.70;;
75413;SDS011;64758;52.122;5.404;2022-12-07T09:51:19;3.67;;;0.60;;
75413;SDS011;64758;52.122;5.404;2022-12-07T09:53:51;5.75;;;1.08;;
75413;SDS011;64758;52.122;5.404;2022-12-07T09:56:20;2.90;;;0.93;;
75413;SDS011;64758;52.122;5.404;2022-12-07T09:58:48;4.83;;;0.70;;
75413;SDS011;64758;52.122;5.404;2022-12-07T10:01:17;2.80;;;0.57;;
75413;SDS011;64758;52.122;5.404;2022-12-07T10:03:49;3.97;;;1.00;;
75413;SDS011;64758;52.122;5.404;2022-12-07T10:06:18;2.58;;;0.50;;
75413;SDS011;64758;52.122;5.404;2022-12-07T10:08:44;4.85;;;0.68;;
75413;SDS011;64758;52.122;5.404;2022-12-07T10:11:11;2.60;;;0.80;;
75413;SDS011;64758;52.122;5.404;2022-12-07T10:13:41;3.95;;;0.60;;
75413;SDS011;64758;52.122;5.404;2022-12-07T10:18:50;3.05;;;0.45;;
75413;SDS011;64758;52.122;5.404;2022-12-07T10:21:18;2.50;;;0.50;;
75413;SDS011;64758;52.122;5.404;2022-12-07T10:24:02;3.83;;;0.50;;
75413;SDS011;64758;52.122;5.404;2022-12-07T10:26:35;2.28;;;0.40;;
75413;SDS011;64758;52.122;5.404;2022-12-07T10:29:14;5.07;;;0.57;;
75413;SDS011;64758;52.122;5.404;2022-12-07T10:31:43;7.00;;;0.47;;
75413;SDS011;64758;52.122;5.404;2022-12-07T10:34:20;2.25;;;0.40;;
75413;SDS011;64758;52.122;5.404;2022-12-07T10:37:16;2.57;;;0.33;;
75413;SDS011;64758;52.122;5.404;2022-12-07T10:39:49;2.42;;;0.45;;
75413;SDS011;64758;52.122;5.404;2022-12-07T10:42:19;0.90;;;0.55;;
75413;SDS011;64758;52.122;5.404;2022-12-07T10:44:49;2.67;;;0.40;;
75413;SDS011;64758;52.122;5.404;2022-12-07T10:53:44;2.85;;;0.43;;
75413;SDS011;64758;52.122;5.404;2022-12-07T10:57:05;2.88;;;0.45;;
75413;SDS011;64758;52.122;5.404;2022-12-07T11:02:25;4.28;;;0.50;;
75413;SDS011;64758;52.122;5.404;2022-12-07T11:10:58;3.13;;;0.45;;
75413;SDS011;64758;52.122;5.404;2022-12-07T11:13:37;2.08;;;0.50;;
75413;SDS011;64758;52.122;5.404;2022-12-07T11:19:02;2.63;;;0.33;;
75413;SDS011;64758;52.122;5.404;2022-12-07T11:21:58;3.50;;;0.45;;
75413;SDS011;64758;52.122;5.404;2022-12-07T11:24:32;3.40;;;0.50;;
75413;SDS011;64758;52.122;5.404;2022-12-07T11:27:17;3.67;;;0.38;;
75413;SDS011;64758;52.122;5.404;2022-12-07T11:30:08;5.20;;;0.70;;
75413;SDS011;64758;52.122;5.404;2022-12-07T11:37:56;4.80;;;0.50;;
75413;SDS011;64758;52.122;5.404;2022-12-07T11:40:31;2.60;;;0.50;;
75413;SDS011;64758;52.122;5.404;2022-12-07T11:45:59;9.93;;;1.13;;
75413;SDS011;64758;52.122;5.404;2022-12-07T11:51:21;5.88;;;1.10;;
75413;SDS011;64758;52.122;5.404;2022-12-07T11:54:05;2.92;;;0.60;;
75413;SDS011;64758;52.122;5.404;2022-12-07T11:56:40;1.77;;;0.43;;
75413;SDS011;64758;52.122;5.404;2022-12-07T11:59:09;3.40;;;0.53;;
75413;SDS011;64758;52.122;5.404;2022-12-07T12:01:56;4.85;;;0.60;;
75413;SDS011;64758;52.122;5.404;2022-12-07T12:07:27;1.88;;;0.20;;
75413;SDS011;64758;52.122;5.404;2022-12-07T12:22:12;2.92;;;0.40;;
75413;SDS011;64758;52.122;5.404;2022-12-07T12:24:44;2.85;;;0.20;;
75413;SDS011;64758;52.122;5.404;2022-12-07T12:27:21;4.30;;;0.40;;
75413;SDS011;64758;52.122;5.404;2022-12-07T12:29:53;2.92;;;0.30;;
75413;SDS011;64758;52.122;5.404;2022-12-07T12:32:40;1.98;;;0.30;;
75413;SDS011;64758;52.122;5.404;2022-12-07T12:40:54;4.63;;;0.23;;
75413;SDS011;64758;52.122;5.404;2022-12-07T12:48:56;2.00;;;0.40;;
75413;SDS011;64758;52.122;5.404;2022-12-07T12:54:29;2.50;;;0.30;;
75413;SDS011;64758;52.122;5.404;2022-12-07T13:00:00;2.83;;;0.30;;
75413;SDS011;64758;52.122;5.404;2022-12-07T13:02:49;2.50;;;0.20;;
75413;SDS011;64758;52.122;5.404;2022-12-07T13:18:40;1.88;;;0.20;;
75413;SDS011;64758;52.122;5.404;2022-12-07T13:23:36;1.25;;;0.30;;
75413;SDS011;64758;52.122;5.404;2022-12-07T13:31:18;1.65;;;0.30;;
75413;SDS011;64758;52.122;5.404;2022-12-07T13:33:50;1.67;;;0.30;;
75413;SDS011;64758;52.122;5.404;2022-12-07T13:36:23;2.03;;;0.20;;
75413;SDS011;64758;52.122;5.404;2022-12-07T13:38:55;1.50;;;0.20;;
75413;SDS011;64758;52.122;5.404;2022-12-07T13:41:24;2.17;;;0.43;;
75413;SDS011;64758;52.122;5.404;2022-12-07T13:43:55;1.10;;;0.30;;
75413;SDS011;64758;52.122;5.404;2022-12-07T13:49:19;3.85;;;0.63;;
75413;SDS011;64758;52.122;5.404;2022-12-07T13:51:47;2.40;;;0.35;;
75413;SDS011;64758;52.122;5.404;2022-12-07T13:54:14;2.65;;;0.47;;
75413;SDS011;64758;52.122;5.404;2022-12-07T13:56:41;3.85;;;0.77;;
75413;SDS011;64758;52.122;5.404;2022-12-07T13:59:16;5.47;;;0.80;;
75413;SDS011;64758;52.122;5.404;2022-12-07T14:01:46;2.35;;;0.60;;
75413;SDS011;64758;52.122;5.404;2022-12-07T14:06:58;4.32;;;0.70;;
75413;SDS011;64758;52.122;5.404;2022-12-07T14:09:28;3.80;;;0.63;;
75413;SDS011;64758;52.122;5.404;2022-12-07T14:11:56;2.87;;;0.70;;
75413;SDS011;64758;52.122;5.404;2022-12-07T14:14:28;5.15;;;1.40;;
75413;SDS011;64758;52.122;5.404;2022-12-07T14:17:12;5.35;;;1.15;;
75413;SDS011;64758;52.122;5.404;2022-12-07T14:25:09;3.17;;;0.33;;
75413;SDS011;64758;52.122;5.404;2022-12-07T14:27:50;1.90;;;0.40;;
75413;SDS011;64758;52.122;5.404;2022-12-07T14:30:22;2.10;;;0.50;;
75413;SDS011;64758;52.122;5.404;2022-12-07T14:32:51;3.20;;;0.40;;
75413;SDS011;64758;52.122;5.404;2022-12-07T14:35:20;6.75;;;0.57;;
75413;SDS011;64758;52.122;5.404;2022-12-07T14:37:47;3.93;;;0.60;;
75413;SDS011;64758;52.122;5.404;2022-12-07T14:40:22;5.60;;;0.70;;
75413;SDS011;64758;52.122;5.404;2022-12-07T14:42:52;4.30;;;0.60;;
75413;SDS011;64758;52.122;5.404;2022-12-07T14:45:23;3.05;;;0.63;;
75413;SDS011;64758;52.122;5.404;2022-12-07T14:47:49;5.55;;;0.65;;
75413;SDS011;64758;52.122;5.404;2022-12-07T14:50:37;2.57;;;0.40;;
75413;SDS011;64758;52.122;5.404;2022-12-07T14:54:09;2.10;;;0.60;;
75413;SDS011;64758;52.122;5.404;2022-12-07T14:56:23;2.78;;;0.40;;
75413;SDS011;64758;52.122;5.404;2022-12-07T14:58:50;6.90;;;0.93;;
75413;SDS011;64758;52.122;5.404;2022-12-07T15:01:17;2.13;;;0.30;;
75413;SDS011;64758;52.122;5.404;2022-12-07T15:03:43;1.30;;;0.40;;
75413;SDS011;64758;52.122;5.404;2022-12-07T15:06:12;2.28;;;0.40;;
75413;SDS011;64758;52.122;5.404;2022-12-07T15:08:41;2.70;;;0.43;;
75413;SDS011;64758;52.122;5.404;2022-12-07T15:11:13;3.58;;;0.40;;
75413;SDS011;64758;52.122;5.404;2022-12-07T15:13:41;3.22;;;0.70;;
75413;SDS011;64758;52.122;5.404;2022-12-07T15:16:26;4.33;;;0.40;;
75413;SDS011;64758;52.122;5.404;2022-12-07T15:19:08;6.38;;;0.45;;
75413;SDS011;64758;52.122;5.404;2022-12-07T15:21:54;1.65;;;0.13;;
75413;SDS011;64758;52.122;5.404;2022-12-07T15:24:21;3.78;;;0.20;;
75413;SDS011;64758;52.122;5.404;2022-12-07T15:26:48;1.35;;;0.40;;
75413;SDS011;64758;52.122;5.404;2022-12-07T15:29:14;1.73;;;0.20;;
75413;SDS011;64758;52.122;5.404;2022-12-07T15:31:48;1.85;;;0.20;;
75413;SDS011;64758;52.122;5.404;2022-12-07T15:34:23;3.67;;;0.40;;
75413;SDS011;64758;52.122;5.404;2022-12-07T15:37:03;3.00;;;0.50;;
75413;SDS011;64758;52.122;5.404;2022-12-07T15:39:29;3.38;;;0.63;;
75413;SDS011;64758;52.122;5.404;2022-12-07T15:41:56;4.17;;;0.60;;
75413;SDS011;64758;52.122;5.404;2022-12-07T15:44:22;0.98;;;0.38;;
75413;SDS011;64758;52.122;5.404;2022-12-07T15:47:07;2.25;;;0.40;;
75413;SDS011;64758;52.122;5.404;2022-12-07T15:49:34;2.50;;;0.32;;
75413;SDS011;64758;52.122;5.404;2022-12-07T15:52:01;1.90;;;0.40;;
75413;SDS011;64758;52.122;5.404;2022-12-07T15:54:28;3.27;;;0.43;;
75413;SDS011;64758;52.122;5.404;2022-12-07T15:56:55;4.13;;;1.27;;
75413;SDS011;64758;52.122;5.404;2022-12-07T15:59:22;3.42;;;0.75;;
75413;SDS011;64758;52.122;5.404;2022-12-07T16:01:50;8.90;;;2.97;;
75413;SDS011;64758;52.122;5.404;2022-12-07T16:04:17;9.10;;;3.17;;
75413;SDS011;64758;52.122;5.404;2022-12-07T16:06:43;9.30;;;4.63;;
75413;SDS011;64758;52.122;5.404;2022-12-07T16:09:10;12.25;;;6.25;;
75413;SDS011;64758;52.122;5.404;2022-12-07T16:11:37;5.38;;;3.63;;
75413;SDS011;64758;52.122;5.404;2022-12-07T16:14:03;7.90;;;3.60;;
75413;SDS011;64758;52.122;5.404;2022-12-07T16:16:30;9.48;;;4.40;;
75413;SDS011;64758;52.122;5.404;2022-12-07T16:18:57;7.60;;;2.87;;
75413;SDS011;64758;52.122;5.404;2022-12-07T16:21:23;5.03;;;1.88;;
75413;SDS011;64758;52.122;5.404;2022-12-07T16:23:51;4.65;;;1.45;;
75413;SDS011;64758;52.122;5.404;2022-12-07T16:26:19;10.52;;;3.90;;
75413;SDS011;64758;52.122;5.404;2022-12-07T16:28:50;15.30;;;5.85;;
75413;SDS011;64758;52.122;5.404;2022-12-07T16:31:18;10.13;;;4.17;;
75413;SDS011;64758;52.122;5.404;2022-12-07T16:33:46;8.40;;;3.65;;
75413;SDS011;64758;52.122;5.404;2022-12-07T16:36:14;9.02;;;3.20;;
75413;SDS011;64758;52.122;5.404;2022-12-07T16:39:02;6.05;;;2.95;;
75413;SDS011;64758;52.122;5.404;2022-12-07T16:41:30;7.30;;;2.83;;
75413;SDS011;64758;52.122;5.404;2022-12-07T16:43:57;5.77;;;2.23;;
75413;SDS011;64758;52.122;5.404;2022-12-07T16:46:28;8.50;;;2.47;;
75413;SDS011;64758;52.122;5.404;2022-12-07T16:48:55;7.47;;;3.35;;
75413;SDS011;64758;52.122;5.404;2022-12-07T16:51:21;5.63;;;2.35;;
75413;SDS011;64758;52.122;5.404;2022-12-07T16:53:48;6.43;;;1.90;;
75413;SDS011;64758;52.122;5.404;2022-12-07T16:56:15;3.50;;;1.10;;
75413;SDS011;64758;52.122;5.404;2022-12-07T16:58:42;4.63;;;1.40;;
75413;SDS011;64758;52.122;5.404;2022-12-07T17:01:10;5.60;;;1.80;;
75413;SDS011;64758;52.122;5.404;2022-12-07T17:03:38;8.55;;;2.72;;
75413;SDS011;64758;52.122;5.404;2022-12-07T17:08:39;1.83;;;1.10;;
75413;SDS011;64758;52.122;5.404;2022-12-07T17:11:22;3.58;;;1.40;;
75413;SDS011;64758;52.122;5.404;2022-12-07T17:13:50;4.03;;;2.00;;
75413;SDS011;64758;52.122;5.404;2022-12-07T17:16:36;4.00;;;1.77;;
75413;SDS011;64758;52.122;5.404;2022-12-07T17:19:03;4.60;;;2.03;;
75413;SDS011;64758;52.122;5.404;2022-12-07T17:21:31;2.50;;;1.53;;